createdAt,value
2022-08-17T00:01:27.361Z,18.20
2022-08-17T00:06:31.442Z,11.73
2022-08-17T00:11:38.578Z,12.02
2022-08-17T00:16:55.537Z,11.70
2022-08-17T00:22:32.890Z,14.30
2022-08-17T00:27:25.096Z,11.60
2022-08-17T00:33:11.593Z,13.43
2022-08-17T00:37:51.368Z,16.80
2022-08-17T00:42:53.608Z,13.70
2022-08-17T00:47:55.795Z,13.60
2022-08-17T00:52:58.709Z,11.25
2022-08-17T00:58:05.188Z,13.27
2022-08-17T01:03:13.245Z,13.88
2022-08-17T01:08:17.244Z,15.73
2022-08-17T01:13:21.063Z,12.50
2022-08-17T01:18:25.660Z,8.80
2022-08-17T01:23:29.015Z,13.38
2022-08-17T01:28:53.851Z,8.90
2022-08-17T01:34:00.229Z,8.20
2022-08-17T01:39:07.357Z,9.73
2022-08-17T01:49:13.182Z,7.60
2022-08-17T01:54:17.431Z,8.02
2022-08-17T01:59:20.368Z,9.65
2022-08-17T02:04:22.544Z,9.32
2022-08-17T02:09:28.882Z,10.13
2022-08-17T02:14:32.191Z,10.60
2022-08-17T02:19:34.344Z,8.40
2022-08-17T02:24:59.900Z,10.27
2022-08-17T02:30:01.121Z,7.88
2022-08-17T02:35:04.761Z,7.78
2022-08-17T02:40:07.675Z,6.32
2022-08-17T02:45:22.989Z,6.40
2022-08-17T02:50:25.469Z,7.23
2022-08-17T02:55:31.561Z,6.30
2022-08-17T03:00:44.473Z,6.50
2022-08-17T03:05:49.514Z,7.97
2022-08-17T03:10:51.713Z,7.57
2022-08-17T03:15:54.088Z,7.50
2022-08-17T03:20:59.694Z,8.73
2022-08-17T03:26:02.148Z,9.05
2022-08-17T03:31:05.955Z,8.90
2022-08-17T03:36:08.558Z,11.02
2022-08-17T03:41:10.768Z,11.25
2022-08-17T03:46:34.977Z,10.50
2022-08-17T03:51:56.493Z,9.07
2022-08-17T03:57:06.175Z,8.88
2022-08-17T04:02:13.141Z,9.52
2022-08-17T04:07:15.324Z,12.88
2022-08-17T04:12:19.722Z,10.95
2022-08-17T04:17:27.544Z,8.07
2022-08-17T04:22:33.744Z,12.07
2022-08-17T04:27:36.811Z,7.75
2022-08-17T04:33:17.021Z,6.50
2022-08-17T04:38:23.127Z,9.70
2022-08-17T04:43:27.472Z,12.50
2022-08-17T04:48:36.042Z,7.30
2022-08-17T04:53:41.689Z,9.00
2022-08-17T04:58:46.914Z,6.10
2022-08-17T05:03:49.351Z,9.05
2022-08-17T05:08:52.115Z,5.28
2022-08-17T05:13:55.571Z,6.28
2022-08-17T05:18:58.694Z,7.60
2022-08-17T05:24:00.978Z,9.55
2022-08-17T05:29:08.222Z,9.77
2022-08-17T05:34:11.602Z,10.77
2022-08-17T05:39:16.545Z,10.90
2022-08-17T05:44:19.445Z,9.75
2022-08-17T05:49:27.611Z,8.07
2022-08-17T05:55:08.379Z,9.70
2022-08-17T06:00:20.146Z,7.63
2022-08-17T06:06:15.490Z,7.63
2022-08-17T06:11:19.850Z,6.55
2022-08-17T06:16:34.375Z,10.77
2022-08-17T06:21:41.717Z,5.80
2022-08-17T06:26:45.392Z,10.25
2022-08-17T06:31:47.623Z,11.85
2022-08-17T06:37:15.359Z,9.85
2022-08-17T06:43:02.358Z,6.88
2022-08-17T06:48:07.394Z,7.85
2022-08-17T06:53:35.538Z,7.82
2022-08-17T06:58:40.783Z,11.75
2022-08-17T07:03:42.980Z,8.35
2022-08-17T07:09:07.149Z,11.32
2022-08-17T07:14:41.043Z,6.25
2022-08-17T07:19:45.759Z,11.35
2022-08-17T07:25:13.142Z,13.15
2022-08-17T07:30:26.245Z,10.27
2022-08-17T07:35:44.059Z,11.77
2022-08-17T07:41:02.072Z,11.43
2022-08-17T07:46:45.536Z,15.50
2022-08-17T07:51:47.628Z,9.35
2022-08-17T07:56:53.808Z,16.20
2022-08-17T08:01:58.763Z,13.90
2022-08-17T08:07:03.730Z,13.43
2022-08-17T08:12:30.570Z,11.30
2022-08-17T08:17:55.846Z,14.90
2022-08-17T08:23:15.627Z,10.15
2022-08-17T08:28:24.110Z,10.02
2022-08-17T08:34:07.072Z,12.32
2022-08-17T08:39:38.485Z,11.45
2022-08-17T08:45:00.321Z,8.68
2022-08-17T08:55:44.950Z,6.95
2022-08-17T09:00:53.386Z,8.30
2022-08-17T09:06:37.776Z,7.47
2022-08-17T09:12:13.995Z,6.25
2022-08-17T09:17:21.604Z,7.82
2022-08-17T09:22:36.186Z,8.00
2022-08-17T09:27:53.265Z,5.53
2022-08-17T09:33:01.968Z,7.65
2022-08-17T09:38:06.953Z,8.38
2022-08-17T09:43:35.636Z,10.37
2022-08-17T09:48:41.282Z,9.00
2022-08-17T09:53:44.811Z,6.97
2022-08-17T09:59:07.404Z,9.07
2022-08-17T10:04:36.582Z,12.07
2022-08-17T10:09:48.763Z,11.52
2022-08-17T10:15:08.159Z,11.05
2022-08-17T10:20:25.061Z,11.05
2022-08-17T10:25:54.989Z,11.43
2022-08-17T10:31:33.029Z,8.13
2022-08-17T10:36:49.811Z,11.35
2022-08-17T10:42:00.577Z,13.77
2022-08-17T10:48:06.502Z,14.60
2022-08-17T10:53:08.977Z,10.47
2022-08-17T10:58:22.115Z,10.88
2022-08-17T11:03:25.427Z,15.02
2022-08-17T11:08:52.697Z,18.05
2022-08-17T11:14:14.212Z,13.38
2022-08-17T11:20:01.073Z,21.48
2022-08-17T11:25:18.510Z,19.85
2022-08-17T11:30:41.031Z,22.33
2022-08-17T11:35:55.310Z,24.20
2022-08-17T11:41:19.701Z,21.10
2022-08-17T11:46:54.457Z,22.05
2022-08-17T11:52:01.044Z,29.75
2022-08-17T11:57:29.663Z,23.00
2022-08-17T12:02:35.631Z,31.00
2022-08-17T12:08:01.247Z,31.60
2022-08-17T12:13:13.139Z,21.67
2022-08-17T12:18:38.388Z,25.55
2022-08-17T12:24:00.003Z,33.50
2022-08-17T12:29:18.059Z,21.00
2022-08-17T12:34:42.830Z,22.95
2022-08-17T12:40:01.093Z,23.63
2022-08-17T12:45:20.437Z,22.48
2022-08-17T12:50:29.672Z,21.50
2022-08-17T12:55:37.177Z,18.02
2022-08-17T13:00:47.613Z,20.60
2022-08-17T13:05:53.018Z,20.90
2022-08-17T13:10:58.333Z,21.63
2022-08-17T13:16:16.764Z,24.75
2022-08-17T13:21:19.022Z,28.05
2022-08-17T13:26:28.155Z,18.67
2022-08-17T13:31:51.795Z,21.38
2022-08-17T13:37:17.348Z,20.73
2022-08-17T13:42:51.510Z,21.48
2022-08-17T13:48:20.790Z,19.88
2022-08-17T13:53:32.953Z,20.95
2022-08-17T13:58:53.966Z,13.93
2022-08-17T14:03:56.719Z,12.80
2022-08-17T14:08:59.273Z,14.00
2022-08-17T14:14:01.570Z,13.57
2022-08-17T14:19:04.016Z,29.77
2022-08-17T14:24:10.206Z,20.05
2022-08-17T14:29:15.565Z,17.17
2022-08-17T14:34:18.876Z,18.83
2022-08-17T14:39:21.083Z,21.50
2022-08-17T14:44:23.208Z,18.38
2022-08-17T14:49:26.024Z,17.80
2022-08-17T14:54:33.858Z,15.80
2022-08-17T14:59:36.613Z,16.65
2022-08-17T15:04:44.902Z,19.90
2022-08-17T15:09:47.749Z,21.52
2022-08-17T15:14:50.688Z,17.85
2022-08-17T15:19:53.262Z,21.60
2022-08-17T15:24:56.260Z,27.65
2022-08-17T15:29:58.483Z,25.65
2022-08-17T15:35:02.163Z,26.48
2022-08-17T15:40:05.585Z,22.73
2022-08-17T15:45:11.768Z,23.88
2022-08-17T15:50:15.078Z,27.75
2022-08-17T15:55:22.090Z,27.58
2022-08-17T16:00:28.498Z,21.20
2022-08-17T16:05:31.250Z,26.50
2022-08-17T16:10:35.240Z,24.90
2022-08-17T16:15:38.127Z,18.88
2022-08-17T16:20:40.284Z,17.77
2022-08-17T16:25:53.929Z,14.27
2022-08-17T16:30:56.498Z,15.68
2022-08-17T16:35:58.812Z,11.85
2022-08-17T16:41:01.616Z,7.90
2022-08-17T16:46:03.922Z,17.02
2022-08-17T16:51:06.196Z,12.50
2022-08-17T16:56:08.376Z,13.60
2022-08-17T17:01:10.574Z,12.75
2022-08-17T17:06:23.931Z,13.52
2022-08-17T17:11:34.239Z,10.13
2022-08-17T17:16:54.476Z,11.07
2022-08-17T17:22:13.293Z,11.57
2022-08-17T17:27:21.430Z,14.00
2022-08-17T17:32:38.126Z,12.15
2022-08-17T17:37:43.056Z,13.18
2022-08-17T17:42:45.675Z,14.23
2022-08-17T17:47:48.533Z,13.02
2022-08-17T17:53:03.740Z,10.35
2022-08-17T17:58:27.503Z,12.00
2022-08-17T18:03:59.215Z,8.77
2022-08-17T18:09:19.862Z,10.25
2022-08-17T18:14:37.176Z,9.68
2022-08-17T18:19:40.027Z,12.30
2022-08-17T18:24:46.011Z,8.38
2022-08-17T18:29:50.177Z,9.10
2022-08-17T18:35:02.341Z,7.20
2022-08-17T18:40:16.801Z,5.40
2022-08-17T18:45:39.002Z,8.77
2022-08-17T18:50:41.533Z,7.93
2022-08-17T18:55:44.471Z,6.70
2022-08-17T19:00:49.095Z,10.82
2022-08-17T19:05:55.352Z,8.82
2022-08-17T19:11:22.234Z,7.85
2022-08-17T19:16:45.956Z,10.63
2022-08-17T19:21:53.677Z,7.53
2022-08-17T19:27:06.301Z,7.25
2022-08-17T19:32:11.266Z,6.97
2022-08-17T19:37:39.008Z,9.85
2022-08-17T19:43:13.383Z,8.13
2022-08-17T19:48:42.760Z,8.63
2022-08-17T19:54:06.419Z,11.27
2022-08-17T19:59:35.941Z,5.78
2022-08-17T20:04:43.883Z,7.03
2022-08-17T20:10:21.411Z,6.95
2022-08-17T20:15:29.784Z,7.30
2022-08-17T20:20:46.755Z,7.18
2022-08-17T20:26:43.295Z,8.13
2022-08-17T20:31:56.711Z,6.57
2022-08-17T20:37:04.874Z,7.47
2022-08-17T20:42:12.673Z,5.95
2022-08-17T20:47:27.335Z,4.57
2022-08-17T20:52:53.086Z,6.47
2022-08-17T20:57:55.228Z,9.97
2022-08-17T21:03:22.568Z,6.55
2022-08-17T21:08:58.874Z,5.72
2022-08-17T21:19:44.456Z,3.85
2022-08-17T21:25:25.320Z,6.60
2022-08-17T21:30:28.488Z,5.30
2022-08-17T21:35:47.345Z,4.93
2022-08-17T21:40:52.883Z,4.30
2022-08-17T21:46:02.039Z,6.93
2022-08-17T21:51:17.661Z,5.53
2022-08-17T21:56:36.347Z,5.55
2022-08-17T22:01:40.811Z,5.90
2022-08-17T22:06:52.552Z,4.75
2022-08-17T22:12:02.750Z,6.07
2022-08-17T22:17:25.255Z,6.95
2022-08-17T22:22:35.160Z,4.28
2022-08-17T22:27:45.850Z,4.10
2022-08-17T22:32:49.938Z,5.25
2022-08-17T22:37:52.514Z,6.65
2022-08-17T22:42:56.942Z,3.63
2022-08-17T22:48:00.685Z,4.07
2022-08-17T22:53:31.873Z,11.15
2022-08-17T22:58:58.895Z,6.97
2022-08-17T23:04:06.003Z,6.68
2022-08-17T23:09:09.155Z,5.75
2022-08-17T23:14:13.466Z,5.53
2022-08-17T23:19:19.878Z,9.65
2022-08-17T23:24:28.370Z,8.02
2022-08-17T23:29:30.785Z,9.38
2022-08-17T23:34:33.637Z,12.35
2022-08-17T23:39:36.552Z,5.90
2022-08-17T23:44:40.963Z,7.43
2022-08-17T23:49:43.136Z,9.27
2022-08-17T23:54:48.616Z,5.95
2022-08-17T23:59:50.844Z,5.63
